createdAt,value
2023-02-06T00:00:55.794Z,31.92
2023-02-06T00:03:23.518Z,30.65
2023-02-06T00:06:01.454Z,34.70
2023-02-06T00:08:29.591Z,38.25
2023-02-06T00:10:57.302Z,28.50
2023-02-06T00:13:25.049Z,32.08
2023-02-06T00:15:52.766Z,35.40
2023-02-06T00:18:20.502Z,34.35
2023-02-06T00:20:48.232Z,35.47
2023-02-06T00:23:17.423Z,27.80
2023-02-06T00:25:45.370Z,36.85
2023-02-06T00:28:13.342Z,37.67
2023-02-06T00:30:41.218Z,38.97
2023-02-06T00:33:08.953Z,42.53
2023-02-06T00:35:36.998Z,42.53
2023-02-06T00:38:06.708Z,44.03
2023-02-06T00:40:35.896Z,40.22
2023-02-06T00:43:03.736Z,32.78
2023-02-06T00:45:31.599Z,38.13
2023-02-06T00:47:59.328Z,27.92
2023-02-06T00:50:27.689Z,49.65
2023-02-06T00:52:55.463Z,46.70
2023-02-06T00:55:23.200Z,36.65
2023-02-06T00:57:52.360Z,36.78
2023-02-06T01:00:20.319Z,43.17
2023-02-06T01:02:48.055Z,48.40
2023-02-06T01:05:15.761Z,30.23
2023-02-06T01:07:43.615Z,45.90
2023-02-06T01:10:12.446Z,39.53
2023-02-06T01:12:40.850Z,41.83
2023-02-06T01:15:13.178Z,37.60
2023-02-06T01:17:41.635Z,38.05
2023-02-06T01:20:12.964Z,40.33
2023-02-06T01:22:41.236Z,32.92
2023-02-06T01:25:09.684Z,30.38
2023-02-06T01:27:38.803Z,33.25
2023-02-06T01:30:09.026Z,35.88
2023-02-06T01:32:39.889Z,34.20
2023-02-06T01:35:09.716Z,31.20
2023-02-06T01:37:37.736Z,32.28
2023-02-06T01:40:07.252Z,25.30
2023-02-06T01:42:35.941Z,28.13
2023-02-06T01:45:41.883Z,28.80
2023-02-06T01:48:14.585Z,42.55
2023-02-06T01:50:46.562Z,32.25
2023-02-06T01:53:17.714Z,34.00
2023-02-06T01:55:47.106Z,30.25
2023-02-06T01:58:18.247Z,31.50
2023-02-06T02:00:46.879Z,30.15
2023-02-06T02:03:16.242Z,35.88
2023-02-06T02:05:47.425Z,35.10
2023-02-06T02:08:20.324Z,29.75
2023-02-06T02:10:48.892Z,37.20
2023-02-06T02:13:16.723Z,34.40
2023-02-06T02:15:53.421Z,39.42
2023-02-06T02:18:39.259Z,37.33
2023-02-06T02:21:44.900Z,36.67
2023-02-06T02:24:21.905Z,31.23
2023-02-06T02:27:31.086Z,29.83
2023-02-06T02:30:40.240Z,32.42
2023-02-06T02:33:36.437Z,32.72
2023-02-06T02:36:15.633Z,33.17
2023-02-06T02:38:54.913Z,31.50
2023-02-06T02:41:29.693Z,33.88
2023-02-06T02:44:05.547Z,36.45
2023-02-06T02:46:37.472Z,32.30
2023-02-06T02:49:09.629Z,42.65
2023-02-06T02:51:40.377Z,45.58
2023-02-06T02:54:09.027Z,37.80
2023-02-06T02:56:37.028Z,33.60
2023-02-06T02:59:09.222Z,39.60
2023-02-06T03:01:42.137Z,42.63
2023-02-06T03:04:14.886Z,32.33
2023-02-06T03:06:58.619Z,31.65
2023-02-06T03:09:40.262Z,40.55
2023-02-06T03:12:16.373Z,49.15
2023-02-06T03:14:50.242Z,27.45
2023-02-06T03:17:24.539Z,31.30
2023-02-06T03:19:57.174Z,34.05
2023-02-06T03:22:29.054Z,32.13
2023-02-06T03:24:59.615Z,32.03
2023-02-06T03:27:29.961Z,33.50
2023-02-06T03:30:02.152Z,33.40
2023-02-06T03:32:33.453Z,41.88
2023-02-06T03:35:05.976Z,37.50
2023-02-06T03:37:36.948Z,27.40
2023-02-06T03:40:07.443Z,35.00
2023-02-06T03:42:38.553Z,32.53
2023-02-06T03:45:10.876Z,40.47
2023-02-06T03:47:39.779Z,34.40
2023-02-06T03:50:10.842Z,35.97
2023-02-06T03:52:45.233Z,29.67
2023-02-06T03:55:15.930Z,46.58
2023-02-06T03:57:48.294Z,42.00
2023-02-06T04:00:17.139Z,45.42
2023-02-06T04:02:47.510Z,37.30
2023-02-06T04:05:19.462Z,34.55
2023-02-06T04:07:48.927Z,33.58
2023-02-06T04:10:19.992Z,30.08
2023-02-06T04:12:48.282Z,27.58
2023-02-06T04:15:16.377Z,27.02
2023-02-06T04:17:58.882Z,40.28
2023-02-06T04:20:28.557Z,47.72
2023-02-06T04:23:13.770Z,45.50
2023-02-06T04:25:41.713Z,50.05
2023-02-06T04:28:10.054Z,39.22
2023-02-06T04:30:38.081Z,42.33
2023-02-06T04:33:06.864Z,36.45
2023-02-06T04:35:35.222Z,38.58
2023-02-06T04:38:05.020Z,39.17
2023-02-06T04:40:32.973Z,51.45
2023-02-06T04:43:01.212Z,35.15
2023-02-06T04:45:29.092Z,51.75
2023-02-06T04:47:59.412Z,78.60
2023-02-06T04:50:29.321Z,75.18
2023-02-06T04:52:57.235Z,57.38
2023-02-06T04:55:26.590Z,68.65
2023-02-06T04:57:54.440Z,68.80
2023-02-06T05:00:22.713Z,64.00
2023-02-06T05:02:50.677Z,159.05
2023-02-06T05:05:18.640Z,156.05
2023-02-06T05:07:46.583Z,154.23
2023-02-06T05:10:15.111Z,163.80
2023-02-06T05:12:44.583Z,123.47
2023-02-06T05:15:12.493Z,76.30
2023-02-06T05:17:40.420Z,120.13
2023-02-06T05:20:09.186Z,87.78
2023-02-06T05:22:37.314Z,54.45
2023-02-06T05:25:05.723Z,29.15
2023-02-06T05:27:33.682Z,13.95
2023-02-06T05:30:03.189Z,56.40
2023-02-06T05:32:31.126Z,20.90
2023-02-06T05:34:58.965Z,20.38
2023-02-06T05:37:26.813Z,21.88
2023-02-06T05:39:54.678Z,85.03
2023-02-06T05:42:22.653Z,132.88
2023-02-06T05:44:50.828Z,142.68
2023-02-06T05:47:20.233Z,36.25
2023-02-06T05:49:48.319Z,24.85
2023-02-06T05:52:16.677Z,26.95
2023-02-06T05:54:44.673Z,25.48
2023-02-06T05:57:13.195Z,57.70
2023-02-06T05:59:41.157Z,17.20
2023-02-06T06:02:09.245Z,42.28
2023-02-06T06:04:38.549Z,67.65
2023-02-06T06:07:07.385Z,151.00
2023-02-06T06:09:35.587Z,153.38
2023-02-06T06:12:03.622Z,141.75
2023-02-06T06:14:31.628Z,53.60
2023-02-06T06:16:59.704Z,87.70
2023-02-06T06:19:27.680Z,80.80
2023-02-06T06:21:58.355Z,138.52
2023-02-06T06:24:26.875Z,146.13
2023-02-06T06:26:54.956Z,60.92
2023-02-06T06:29:23.101Z,63.80
2023-02-06T06:31:51.012Z,87.47
2023-02-06T06:34:19.163Z,74.75
2023-02-06T06:36:47.119Z,91.63
2023-02-06T06:39:16.635Z,55.22
2023-02-06T06:41:44.580Z,85.13
2023-02-06T06:44:12.474Z,92.95
2023-02-06T06:46:41.006Z,118.35
2023-02-06T06:49:09.057Z,139.00
2023-02-06T06:51:37.592Z,45.88
2023-02-06T06:54:06.003Z,56.95
2023-02-06T06:56:35.467Z,40.60
2023-02-06T06:59:03.525Z,84.53
2023-02-06T07:01:31.553Z,102.18
2023-02-06T07:04:00.078Z,40.33
2023-02-06T07:06:31.864Z,25.52
2023-02-06T07:09:00.004Z,33.05
2023-02-06T07:11:28.085Z,39.42
2023-02-06T07:13:57.772Z,28.05
2023-02-06T07:16:25.946Z,51.13
2023-02-06T07:18:53.917Z,33.25
2023-02-06T07:21:22.105Z,31.73
2023-02-06T07:23:50.457Z,20.25
2023-02-06T07:26:18.617Z,24.77
2023-02-06T07:28:48.511Z,32.00
2023-02-06T07:31:18.082Z,51.92
2023-02-06T07:33:46.130Z,26.95
2023-02-06T07:36:14.760Z,54.88
2023-02-06T07:38:43.213Z,24.80
2023-02-06T07:41:12.735Z,47.17
2023-02-06T07:43:43.744Z,44.92
2023-02-06T07:46:12.088Z,24.08
2023-02-06T07:48:42.517Z,52.20
2023-02-06T07:51:11.492Z,26.35
2023-02-06T07:53:39.792Z,37.13
2023-02-06T07:56:12.288Z,30.58
2023-02-06T08:01:08.560Z,28.17
2023-02-06T08:03:36.857Z,76.10
2023-02-06T08:06:10.510Z,57.15
2023-02-06T08:08:38.403Z,54.30
2023-02-06T08:11:07.319Z,46.55
2023-02-06T08:13:35.321Z,71.25
2023-02-06T08:16:05.966Z,70.90
2023-02-06T08:18:34.307Z,51.50
2023-02-06T08:21:03.590Z,41.08
2023-02-06T08:23:33.448Z,37.35
2023-02-06T08:26:04.621Z,35.80
2023-02-06T08:28:35.141Z,32.53
2023-02-06T08:31:09.540Z,23.38
2023-02-06T08:33:37.626Z,25.77
2023-02-06T08:36:06.692Z,18.20
2023-02-06T08:38:36.785Z,25.33
2023-02-06T08:41:05.026Z,18.75
2023-02-06T08:43:33.299Z,15.73
2023-02-06T08:46:01.210Z,17.02
2023-02-06T08:48:29.123Z,23.20
2023-02-06T08:51:04.222Z,27.95
2023-02-06T08:53:32.134Z,28.83
2023-02-06T08:56:02.768Z,18.80
2023-02-06T08:58:30.692Z,18.90
2023-02-06T09:01:00.016Z,32.50
2023-02-06T09:03:28.541Z,42.70
2023-02-06T09:06:09.313Z,102.22
2023-02-06T09:08:38.616Z,39.50
2023-02-06T09:11:09.084Z,46.20
2023-02-06T09:13:37.277Z,28.00
2023-02-06T09:16:06.872Z,36.17
2023-02-06T09:18:35.270Z,72.30
2023-02-06T09:21:08.075Z,99.60
2023-02-06T09:23:35.981Z,44.38
2023-02-06T09:26:04.119Z,56.65
2023-02-06T09:28:33.674Z,38.88
2023-02-06T09:31:01.659Z,52.03
2023-02-06T09:33:29.697Z,70.25
2023-02-06T09:36:05.057Z,60.95
2023-02-06T09:38:32.910Z,42.53
2023-02-06T09:41:02.665Z,56.17
2023-02-06T09:43:31.779Z,48.58
2023-02-06T09:46:03.127Z,33.35
2023-02-06T09:48:36.044Z,27.25
2023-02-06T09:51:13.800Z,28.33
2023-02-06T09:53:52.517Z,25.67
2023-02-06T09:56:30.161Z,49.33
2023-02-06T09:59:05.825Z,52.55
2023-02-06T10:01:41.340Z,33.63
2023-02-06T10:04:28.922Z,57.95
2023-02-06T10:07:04.784Z,24.63
2023-02-06T10:09:41.521Z,34.38
2023-02-06T10:12:15.954Z,129.18
2023-02-06T10:14:48.110Z,33.05
2023-02-06T10:17:21.902Z,29.20
2023-02-06T10:19:55.139Z,39.30
2023-02-06T10:22:31.295Z,45.47
2023-02-06T10:25:20.632Z,29.42
2023-02-06T10:27:53.994Z,29.75
2023-02-06T10:30:31.075Z,36.20
2023-02-06T10:33:07.916Z,102.10
2023-02-06T10:35:51.480Z,64.97
2023-02-06T10:38:31.467Z,46.20
2023-02-06T10:41:04.135Z,38.10
2023-02-06T10:43:43.531Z,50.92
2023-02-06T10:46:30.287Z,34.22
2023-02-06T10:49:04.210Z,32.70
2023-02-06T10:51:33.878Z,35.53
2023-02-06T10:54:03.995Z,82.32
2023-02-06T10:56:36.943Z,185.93
2023-02-06T10:59:12.031Z,65.22
2023-02-06T11:01:42.017Z,44.28
2023-02-06T11:04:16.797Z,42.85
2023-02-06T11:06:46.824Z,43.17
2023-02-06T11:09:15.315Z,50.28
2023-02-06T11:11:48.543Z,44.47
2023-02-06T11:14:20.767Z,51.80
2023-02-06T11:16:48.751Z,44.60
2023-02-06T11:19:25.285Z,45.47
2023-02-06T11:21:56.428Z,47.20
2023-02-06T11:24:25.976Z,40.80
2023-02-06T11:26:58.618Z,43.40
2023-02-06T11:29:29.242Z,40.67
2023-02-06T11:31:59.512Z,43.58
2023-02-06T11:34:32.207Z,40.30
2023-02-06T11:37:02.229Z,47.60
2023-02-06T11:39:32.846Z,37.03
2023-02-06T11:42:03.386Z,36.75
2023-02-06T11:44:41.850Z,43.65
2023-02-06T11:47:22.381Z,35.60
2023-02-06T11:49:51.554Z,33.90
2023-02-06T11:52:30.938Z,33.67
2023-02-06T11:55:02.166Z,37.05
2023-02-06T11:57:31.565Z,37.03
2023-02-06T12:00:01.385Z,34.30
2023-02-06T12:02:31.671Z,36.92
2023-02-06T12:05:13.813Z,35.15
2023-02-06T12:07:45.334Z,32.08
2023-02-06T12:10:15.736Z,28.67
2023-02-06T12:12:47.407Z,37.78
2023-02-06T12:15:44.494Z,36.47
2023-02-06T12:18:12.949Z,34.78
2023-02-06T12:20:51.174Z,33.72
2023-02-06T12:23:24.902Z,36.72
2023-02-06T12:25:56.449Z,33.35
2023-02-06T12:28:29.426Z,37.90
2023-02-06T12:30:59.902Z,35.40
2023-02-06T12:33:34.751Z,27.83
2023-02-06T12:36:11.902Z,33.22
2023-02-06T12:38:47.089Z,33.45
2023-02-06T12:41:29.790Z,27.88
2023-02-06T12:46:29.325Z,32.95
2023-02-06T12:49:04.576Z,29.50
2023-02-06T12:51:40.340Z,31.35
2023-02-06T12:54:16.809Z,31.42
2023-02-06T12:56:49.356Z,34.05
2023-02-06T13:02:01.063Z,41.38
2023-02-06T13:04:33.795Z,32.20
2023-02-06T13:07:08.282Z,35.80
2023-02-06T13:09:41.740Z,37.33
2023-02-06T13:12:16.712Z,34.90
2023-02-06T13:14:50.537Z,35.00
2023-02-06T13:17:21.437Z,34.13
2023-02-06T13:20:00.600Z,29.08
2023-02-06T13:22:50.167Z,31.52
2023-02-06T13:25:51.556Z,33.90
2023-02-06T13:28:42.352Z,30.20
2023-02-06T13:31:26.608Z,32.35
2023-02-06T13:33:57.927Z,34.00
2023-02-06T13:36:41.050Z,33.88
2023-02-06T13:39:31.185Z,34.40
2023-02-06T13:42:04.325Z,32.03
2023-02-06T13:44:35.045Z,26.27
2023-02-06T13:47:44.533Z,27.55
2023-02-06T13:50:34.071Z,31.85
2023-02-06T13:53:26.924Z,29.17
2023-02-06T13:58:39.859Z,26.38
2023-02-06T14:01:15.144Z,25.33
2023-02-06T14:03:48.659Z,24.00
2023-02-06T14:06:45.020Z,23.77
2023-02-06T14:09:46.353Z,27.23
2023-02-06T14:12:35.458Z,31.27
2023-02-06T14:15:16.598Z,31.70
2023-02-06T14:17:58.503Z,27.52
2023-02-06T14:20:41.880Z,27.73
2023-02-06T14:23:22.246Z,31.73
2023-02-06T14:26:11.448Z,25.15
2023-02-06T14:28:52.150Z,27.38
2023-02-06T14:31:33.239Z,26.90
2023-02-06T14:34:19.010Z,27.50
2023-02-06T14:37:06.734Z,31.00
2023-02-06T14:39:40.842Z,27.67
2023-02-06T14:42:16.652Z,27.15
2023-02-06T14:44:51.282Z,27.67
2023-02-06T14:47:21.714Z,28.60
2023-02-06T14:49:50.612Z,27.75
2023-02-06T14:52:22.438Z,27.35
2023-02-06T14:54:50.412Z,29.35
2023-02-06T14:57:22.888Z,28.00
2023-02-06T15:02:26.812Z,33.42
2023-02-06T15:04:55.109Z,27.42
2023-02-06T15:07:26.030Z,30.83
2023-02-06T15:10:00.591Z,26.23
2023-02-06T15:12:30.149Z,24.55
2023-02-06T15:15:05.308Z,28.58
2023-02-06T15:17:34.431Z,31.65
2023-02-06T15:20:25.281Z,30.98
2023-02-06T15:22:55.328Z,27.98
2023-02-06T15:25:34.693Z,30.20
2023-02-06T15:28:11.105Z,28.27
2023-02-06T15:30:40.841Z,25.23
2023-02-06T15:33:11.501Z,26.15
2023-02-06T15:35:42.505Z,25.73
2023-02-06T15:38:14.630Z,26.05
2023-02-06T15:40:45.594Z,28.65
2023-02-06T15:43:17.250Z,24.90
2023-02-06T15:45:47.413Z,24.43
2023-02-06T15:48:23.676Z,30.15
2023-02-06T15:51:01.429Z,25.50
2023-02-06T15:53:36.210Z,28.60
2023-02-06T15:56:06.102Z,26.67
2023-02-06T15:58:35.623Z,21.95
2023-02-06T16:01:17.560Z,28.02
2023-02-06T16:03:46.678Z,23.25
2023-02-06T16:06:15.756Z,26.15
2023-02-06T16:08:49.225Z,23.40
2023-02-06T16:11:31.449Z,27.30
2023-02-06T16:13:59.965Z,28.00
2023-02-06T16:16:29.761Z,27.45
2023-02-06T16:18:58.622Z,29.92
2023-02-06T16:21:29.584Z,25.33
2023-02-06T16:24:16.501Z,24.83
2023-02-06T16:26:47.047Z,28.75
2023-02-06T16:29:27.371Z,31.42
2023-02-06T16:32:02.259Z,32.40
2023-02-06T16:34:37.432Z,32.85
2023-02-06T16:37:10.982Z,26.65
2023-02-06T16:39:39.040Z,27.55
2023-02-06T16:42:09.847Z,29.35
2023-02-06T16:44:44.699Z,31.45
2023-02-06T16:47:17.074Z,31.92
2023-02-06T16:49:48.016Z,29.25
2023-02-06T16:52:21.758Z,26.05
2023-02-06T16:54:49.871Z,28.70
2023-02-06T16:57:23.834Z,28.08
2023-02-06T16:59:52.297Z,22.65
2023-02-06T17:02:21.669Z,23.77
2023-02-06T17:04:49.543Z,26.88
2023-02-06T17:07:19.756Z,26.73
2023-02-06T17:09:48.760Z,26.02
2023-02-06T17:12:20.508Z,30.10
2023-02-06T17:14:49.127Z,24.10
2023-02-06T17:17:19.160Z,29.60
2023-02-06T17:19:49.450Z,32.70
2023-02-06T17:22:17.971Z,28.83
2023-02-06T17:24:46.116Z,37.55
2023-02-06T17:27:18.808Z,31.98
2023-02-06T17:29:47.725Z,30.55
2023-02-06T17:32:18.052Z,26.35
2023-02-06T17:34:45.792Z,30.92
2023-02-06T17:37:20.756Z,28.63
2023-02-06T17:39:50.529Z,27.05
2023-02-06T17:42:18.318Z,33.42
2023-02-06T17:44:46.247Z,31.02
2023-02-06T17:47:14.140Z,24.17
2023-02-06T17:49:41.992Z,27.45
2023-02-06T17:52:09.709Z,26.75
2023-02-06T17:54:39.092Z,32.50
2023-02-06T17:57:06.852Z,34.47
2023-02-06T17:59:34.647Z,35.65
2023-02-06T18:02:02.758Z,34.53
2023-02-06T18:04:30.534Z,36.05
2023-02-06T18:06:58.400Z,38.67
2023-02-06T18:09:26.185Z,36.90
2023-02-06T18:11:55.319Z,37.47
2023-02-06T18:14:23.108Z,29.83
2023-02-06T18:16:50.883Z,40.10
2023-02-06T18:19:23.857Z,36.42
2023-02-06T18:21:51.966Z,35.42
2023-02-06T18:24:19.821Z,32.03
2023-02-06T18:26:47.577Z,28.00
2023-02-06T18:29:16.872Z,23.80
2023-02-06T18:31:44.613Z,33.30
2023-02-06T18:34:12.451Z,29.10
2023-02-06T18:36:40.260Z,30.92
2023-02-06T18:39:08.006Z,30.65
2023-02-06T18:41:53.519Z,36.95
2023-02-06T18:44:23.831Z,28.05
2023-02-06T18:46:53.305Z,31.15
2023-02-06T18:49:21.139Z,29.85
2023-02-06T18:51:48.875Z,35.72
2023-02-06T18:54:16.650Z,28.98
2023-02-06T18:56:45.455Z,31.42
2023-02-06T18:59:16.172Z,29.95
2023-02-06T19:01:45.462Z,26.67
2023-02-06T19:04:13.201Z,32.92
2023-02-06T19:06:43.145Z,25.45
2023-02-06T19:09:13.123Z,35.15
2023-02-06T19:11:42.934Z,30.77
2023-02-06T19:14:15.757Z,34.95
2023-02-06T19:16:47.417Z,38.38
2023-02-06T19:19:15.592Z,39.00
2023-02-06T19:21:44.218Z,34.42
2023-02-06T19:24:14.050Z,36.47
2023-02-06T19:26:42.565Z,29.90
2023-02-06T19:29:12.791Z,30.27
2023-02-06T19:31:42.624Z,34.67
2023-02-06T19:34:11.902Z,28.20
2023-02-06T19:36:39.800Z,34.33
2023-02-06T19:39:10.504Z,29.65
2023-02-06T19:41:38.431Z,37.88
2023-02-06T19:44:08.148Z,39.53
2023-02-06T19:46:36.256Z,28.35
2023-02-06T19:49:06.340Z,29.58
2023-02-06T19:51:38.332Z,33.65
2023-02-06T19:54:06.830Z,41.67
2023-02-06T19:56:38.419Z,30.42
2023-02-06T19:59:08.882Z,34.43
2023-02-06T20:01:36.780Z,29.63
2023-02-06T20:04:05.868Z,29.88
2023-02-06T20:06:36.429Z,39.17
2023-02-06T20:09:05.563Z,33.30
2023-02-06T20:11:34.636Z,31.83
2023-02-06T20:14:02.465Z,31.70
2023-02-06T20:16:32.232Z,30.10
2023-02-06T20:19:05.941Z,37.05
2023-02-06T20:21:39.058Z,39.88
2023-02-06T20:24:10.020Z,36.28
2023-02-06T20:26:39.756Z,30.17
2023-02-06T20:29:08.808Z,30.98
2023-02-06T20:31:37.497Z,35.25
2023-02-06T20:34:05.686Z,31.02
2023-02-06T20:36:35.400Z,40.22
2023-02-06T20:39:03.150Z,36.78
2023-02-06T20:41:32.925Z,32.63
2023-02-06T20:44:02.198Z,42.17
2023-02-06T20:46:32.661Z,44.22
2023-02-06T20:49:02.025Z,38.75
2023-02-06T20:51:30.989Z,40.33
2023-02-06T20:54:00.293Z,35.65
2023-02-06T20:56:28.377Z,37.70
2023-02-06T20:58:57.817Z,44.13
2023-02-06T21:01:28.202Z,39.10
2023-02-06T21:03:59.962Z,39.72
2023-02-06T21:06:29.306Z,39.72
2023-02-06T21:09:00.215Z,53.17
2023-02-06T21:11:30.669Z,41.88
2023-02-06T21:13:59.510Z,41.70
2023-02-06T21:16:28.172Z,43.40
2023-02-06T21:18:57.212Z,38.70
2023-02-06T21:21:26.482Z,42.63
2023-02-06T21:23:55.731Z,40.53
2023-02-06T21:26:24.081Z,46.20
2023-02-06T21:28:54.247Z,44.65
2023-02-06T21:31:24.416Z,35.08
2023-02-06T21:33:53.369Z,32.85
2023-02-06T21:36:22.977Z,37.58
2023-02-06T21:38:50.781Z,42.25
2023-02-06T21:41:19.832Z,35.97
2023-02-06T21:43:47.715Z,35.92
2023-02-06T21:46:17.003Z,38.00
2023-02-06T21:48:44.958Z,37.75
2023-02-06T21:51:14.817Z,42.55
2023-02-06T21:53:43.289Z,45.33
2023-02-06T21:56:15.064Z,47.50
2023-02-06T21:58:42.901Z,44.72
2023-02-06T22:01:17.151Z,51.63
2023-02-06T22:03:46.057Z,62.90
2023-02-06T22:06:15.864Z,69.97
2023-02-06T22:08:48.019Z,144.93
2023-02-06T22:11:18.878Z,129.63
2023-02-06T22:13:47.978Z,95.30
2023-02-06T22:16:20.527Z,73.75
2023-02-06T22:18:48.875Z,63.65
2023-02-06T22:21:18.808Z,54.97
2023-02-06T22:23:48.186Z,46.40
2023-02-06T22:26:18.044Z,52.67
2023-02-06T22:28:46.000Z,39.13
2023-02-06T22:31:20.668Z,35.45
2023-02-06T22:33:49.153Z,33.47
2023-02-06T22:36:19.364Z,38.33
2023-02-06T22:38:49.029Z,58.67
2023-02-06T22:41:17.997Z,51.60
2023-02-06T22:43:47.102Z,47.58
2023-02-06T22:46:21.488Z,69.40
2023-02-06T22:48:49.594Z,48.92
2023-02-06T22:51:17.878Z,52.10
2023-02-06T22:53:45.900Z,53.38
2023-02-06T22:56:29.428Z,51.83
2023-02-06T22:58:59.565Z,57.20
2023-02-06T23:01:31.900Z,58.90
2023-02-06T23:04:00.617Z,65.63
2023-02-06T23:06:29.821Z,107.47
2023-02-06T23:08:58.364Z,103.05
2023-02-06T23:11:28.281Z,90.15
2023-02-06T23:13:59.905Z,85.75
2023-02-06T23:16:30.255Z,66.72
2023-02-06T23:18:58.086Z,95.25
2023-02-06T23:21:27.244Z,65.65
2023-02-06T23:23:55.839Z,60.80
2023-02-06T23:26:24.395Z,67.15
2023-02-06T23:28:52.170Z,76.82
2023-02-06T23:31:20.125Z,74.20
2023-02-06T23:33:49.376Z,48.63
2023-02-06T23:36:18.937Z,50.58
2023-02-06T23:38:47.455Z,51.60
2023-02-06T23:41:17.166Z,36.78
2023-02-06T23:43:45.541Z,42.83
2023-02-06T23:46:14.717Z,38.05
2023-02-06T23:48:42.586Z,37.63
2023-02-06T23:51:11.762Z,35.67
2023-02-06T23:53:39.628Z,35.83
2023-02-06T23:56:11.834Z,34.33
2023-02-06T23:58:39.699Z,46.05
